KPCM

Plant City Airport

Plant City, Florida, USA
METAR KPCM 122055Z AUTO 00000KT 10SM CLR 19/09 A3025 RMK AO2
Observed Flight Rules
Dec-12 @ 20:55 UTC (13 minutes ago) Visual Flight Rules
Visibility Clouds
10 miles
  • Clear skies
Temperatures Readings
Current 19°C / 66°F
Dewpoint 9°C / 48°F
Humidity 52%
Altimeter 30.25" Hg
Pressure 1024 hPa
Elevation 47
METAR KPCM 122055Z AUTO 00000KT 10SM CLR 19/09 A3025 RMK AO2
Observed Flight Rules
Dec-12 @ 20:55 UTC
(13 minutes ago)
VFR
Clouds
  • Clear skies
Temperature Dewpoint
19°C / 66°F 9°C / 48°F
Humidity Altimeter Pressure
52% 30.25" Hg 1024 hPa